createdAt,value
2023-08-11T00:00:01.691Z,3.35
2023-08-11T00:02:41.406Z,3.55
2023-08-11T00:05:12.595Z,5.22
2023-08-11T00:07:39.517Z,3.17
2023-08-11T00:10:09.059Z,4.53
2023-08-11T00:12:36.463Z,4.97
2023-08-11T00:15:03.589Z,3.90
2023-08-11T00:17:30.514Z,2.42
2023-08-11T00:19:58.181Z,3.80
2023-08-11T00:22:25.288Z,3.97
2023-08-11T00:24:52.167Z,3.70
2023-08-11T00:27:21.024Z,3.17
2023-08-11T00:29:47.946Z,3.50
2023-08-11T00:32:14.898Z,3.42
2023-08-11T00:34:41.776Z,3.88
2023-08-11T00:37:09.230Z,3.20
2023-08-11T00:39:36.886Z,4.43
2023-08-11T00:42:04.115Z,4.07
2023-08-11T00:44:31.369Z,3.40
2023-08-11T00:46:59.121Z,4.95
2023-08-11T00:49:26.063Z,4.72
2023-08-11T00:51:53.636Z,3.47
2023-08-11T00:54:22.459Z,4.60
2023-08-11T00:56:50.287Z,3.22
2023-08-11T00:59:20.430Z,3.78
2023-08-11T01:01:47.325Z,4.22
2023-08-11T01:04:14.392Z,3.55
2023-08-11T01:06:46.223Z,3.63
2023-08-11T01:09:31.150Z,4.82
2023-08-11T01:12:24.845Z,4.07
2023-08-11T01:15:16.255Z,4.43
2023-08-11T01:17:46.526Z,3.42
2023-08-11T01:20:17.264Z,4.18
2023-08-11T01:22:54.911Z,4.50
2023-08-11T01:25:22.598Z,4.32
2023-08-11T01:27:56.929Z,3.95
2023-08-11T01:30:26.390Z,3.15
2023-08-11T01:32:53.569Z,3.30
2023-08-11T01:35:33.615Z,4.35
2023-08-11T01:38:10.017Z,4.07
2023-08-11T01:40:38.264Z,3.40
2023-08-11T01:43:08.548Z,3.25
2023-08-11T01:45:35.788Z,4.10
2023-08-11T01:48:04.689Z,4.78
2023-08-11T01:50:34.505Z,3.55
2023-08-11T01:53:01.754Z,3.58
2023-08-11T01:55:30.255Z,3.90
2023-08-11T01:57:59.756Z,3.60
2023-08-11T02:00:29.616Z,4.47
2023-08-11T02:02:58.685Z,4.82
2023-08-11T02:05:26.714Z,5.22
2023-08-11T02:07:56.649Z,3.08
2023-08-11T02:10:24.291Z,3.97
2023-08-11T02:12:51.143Z,3.97
2023-08-11T02:15:18.137Z,4.63
2023-08-11T02:17:45.429Z,5.22
2023-08-11T02:20:22.637Z,4.20
2023-08-11T02:22:50.522Z,3.80
2023-08-11T02:25:17.993Z,4.63
2023-08-11T02:27:45.404Z,4.53
2023-08-11T02:30:13.905Z,3.70
2023-08-11T02:32:42.685Z,4.97
2023-08-11T02:35:11.784Z,4.30
2023-08-11T02:37:40.205Z,3.30
2023-08-11T02:40:11.878Z,4.63
2023-08-11T02:42:45.174Z,4.00
2023-08-11T02:45:12.648Z,4.07
2023-08-11T02:47:43.420Z,4.32
2023-08-11T02:50:11.450Z,4.43
2023-08-11T02:52:38.735Z,4.60
2023-08-11T02:55:08.074Z,3.88
2023-08-11T02:57:36.354Z,3.92
2023-08-11T03:00:16.105Z,4.95
2023-08-11T03:02:47.424Z,3.83
2023-08-11T03:05:16.676Z,4.05
2023-08-11T03:07:45.115Z,4.70
2023-08-11T03:10:12.420Z,3.80
2023-08-11T03:12:41.758Z,4.40
2023-08-11T03:15:10.017Z,4.28
2023-08-11T03:17:38.411Z,4.30
2023-08-11T03:20:16.346Z,4.38
2023-08-11T03:22:46.154Z,3.92
2023-08-11T03:25:16.654Z,5.25
2023-08-11T03:27:44.692Z,4.30
2023-08-11T03:30:19.076Z,3.90
2023-08-11T03:32:50.747Z,4.82
2023-08-11T03:35:19.378Z,4.25
2023-08-11T03:37:48.413Z,4.53
2023-08-11T03:40:18.051Z,4.78
2023-08-11T03:42:51.616Z,4.30
2023-08-11T03:45:18.529Z,5.00
2023-08-11T03:47:45.469Z,5.18
2023-08-11T03:50:18.543Z,5.15
2023-08-11T03:52:47.437Z,4.38
2023-08-11T03:55:14.894Z,4.72
2023-08-11T03:57:41.852Z,4.68
2023-08-11T04:00:16.417Z,4.60
2023-08-11T04:02:50.306Z,5.25
2023-08-11T04:05:18.658Z,3.88
2023-08-11T04:07:45.590Z,4.75
2023-08-11T04:10:12.732Z,5.60
2023-08-11T04:12:40.008Z,4.85
2023-08-11T04:15:07.723Z,4.93
2023-08-11T04:17:35.021Z,4.13
2023-08-11T04:20:02.261Z,3.85
2023-08-11T04:22:38.537Z,5.22
2023-08-11T04:25:11.733Z,4.57
2023-08-11T04:27:42.719Z,4.57
2023-08-11T04:30:11.689Z,4.25
2023-08-11T04:32:40.214Z,6.05
2023-08-11T04:35:09.266Z,4.55
2023-08-11T04:37:38.537Z,5.32
2023-08-11T04:40:14.753Z,5.38
2023-08-11T04:45:13.336Z,4.50
2023-08-11T04:47:41.469Z,5.55
2023-08-11T04:50:12.955Z,5.28
2023-08-11T04:52:40.156Z,6.05
2023-08-11T04:55:08.790Z,4.97
2023-08-11T04:57:36.885Z,5.53
2023-08-11T05:00:07.982Z,5.28
2023-08-11T05:02:34.991Z,6.35
2023-08-11T05:05:02.099Z,5.72
2023-08-11T05:07:30.283Z,5.47
2023-08-11T05:10:00.231Z,5.32
2023-08-11T05:12:27.129Z,5.78
2023-08-11T05:14:54.504Z,5.40
2023-08-11T05:17:21.371Z,5.93
2023-08-11T05:19:48.326Z,6.32
2023-08-11T05:22:15.217Z,6.57
2023-08-11T05:24:42.101Z,5.03
2023-08-11T05:27:10.049Z,5.55
2023-08-11T05:29:37.195Z,4.63
2023-08-11T05:32:04.654Z,4.95
2023-08-11T05:34:31.614Z,4.13
2023-08-11T05:37:01.328Z,5.05
2023-08-11T05:39:30.007Z,5.47
2023-08-11T05:41:58.001Z,5.75
2023-08-11T05:44:24.974Z,5.75
2023-08-11T05:46:51.944Z,4.35
2023-08-11T05:49:18.813Z,7.43
2023-08-11T05:51:45.713Z,5.43
2023-08-11T05:54:12.644Z,8.40
2023-08-11T05:56:39.555Z,7.20
2023-08-11T05:59:06.430Z,7.57
2023-08-11T06:01:33.605Z,5.45
2023-08-11T06:04:00.589Z,7.75
2023-08-11T06:06:27.833Z,6.43
2023-08-11T06:08:56.010Z,4.90
2023-08-11T06:11:22.959Z,5.55
2023-08-11T06:13:49.883Z,7.38
2023-08-11T06:16:16.802Z,4.28
2023-08-11T06:18:43.701Z,6.47
2023-08-11T06:21:10.817Z,5.53
2023-08-11T06:23:37.780Z,5.32
2023-08-11T06:26:04.662Z,6.97
2023-08-11T06:28:31.534Z,8.65
2023-08-11T06:30:59.753Z,5.32
2023-08-11T06:33:26.857Z,5.43
2023-08-11T06:35:54.189Z,7.50
2023-08-11T06:38:21.170Z,6.85
2023-08-11T06:40:48.802Z,7.68
2023-08-11T06:43:15.683Z,7.35
2023-08-11T06:45:46.111Z,6.43
2023-08-11T06:48:13.433Z,5.40
2023-08-11T06:50:40.425Z,7.80
2023-08-11T06:53:07.398Z,8.40
2023-08-11T06:55:34.306Z,8.73
2023-08-11T06:58:03.161Z,6.45
2023-08-11T07:00:30.092Z,8.07
2023-08-11T07:02:57.592Z,16.65
2023-08-11T07:05:24.528Z,53.10
2023-08-11T07:07:51.377Z,41.78
2023-08-11T07:10:18.478Z,35.17
2023-08-11T07:12:45.366Z,29.85
2023-08-11T07:15:12.302Z,34.97
2023-08-11T07:17:39.449Z,41.53
2023-08-11T07:20:07.613Z,36.20
2023-08-11T07:22:34.523Z,51.92
2023-08-11T07:25:01.474Z,57.03
2023-08-11T07:27:28.546Z,38.85
2023-08-11T07:29:55.425Z,32.75
2023-08-11T07:32:22.325Z,39.60
2023-08-11T07:34:49.223Z,35.15
2023-08-11T07:37:16.201Z,39.65
2023-08-11T07:39:43.693Z,47.20
2023-08-11T07:42:10.598Z,50.03
2023-08-11T07:44:38.009Z,38.78
2023-08-11T07:47:05.162Z,29.70
2023-08-11T07:49:32.683Z,33.28
2023-08-11T07:51:59.897Z,34.97
2023-08-11T07:54:27.221Z,35.72
2023-08-11T07:56:54.211Z,33.17
2023-08-11T07:59:21.274Z,33.83
2023-08-11T08:01:48.560Z,36.65
2023-08-11T08:04:15.893Z,34.25
2023-08-11T08:06:46.807Z,30.00
2023-08-11T08:09:16.007Z,29.58
2023-08-11T08:11:45.339Z,28.63
2023-08-11T08:14:13.424Z,24.38
2023-08-11T08:16:43.235Z,29.20
2023-08-11T08:19:12.210Z,32.17
2023-08-11T08:21:40.297Z,27.88
2023-08-11T08:24:09.087Z,33.75
2023-08-11T08:26:37.351Z,25.75
2023-08-11T08:29:05.165Z,23.58
2023-08-11T08:31:32.636Z,25.83
2023-08-11T08:34:00.445Z,26.98
2023-08-11T08:36:27.618Z,22.23
2023-08-11T08:38:54.568Z,22.17
2023-08-11T08:41:29.050Z,21.98
2023-08-11T08:43:57.353Z,21.88
2023-08-11T08:46:31.647Z,24.10
2023-08-11T08:49:23.573Z,23.42
2023-08-11T08:51:50.890Z,22.52
2023-08-11T08:54:18.062Z,24.08
2023-08-11T08:56:45.082Z,18.58
2023-08-11T08:59:12.463Z,18.88
2023-08-11T09:01:40.179Z,23.63
2023-08-11T09:04:09.325Z,20.75
2023-08-11T09:06:36.649Z,19.45
2023-08-11T09:09:05.873Z,20.02
2023-08-11T09:11:33.096Z,17.70
2023-08-11T09:14:09.298Z,23.48
2023-08-11T09:16:39.049Z,22.67
2023-08-11T09:19:11.273Z,21.98
2023-08-11T09:21:41.185Z,15.57
2023-08-11T09:24:13.252Z,16.38
2023-08-11T09:26:53.616Z,18.77
2023-08-11T09:29:21.771Z,19.83
2023-08-11T09:31:54.003Z,17.13
2023-08-11T09:34:21.803Z,15.10
2023-08-11T09:36:50.360Z,18.30
2023-08-11T09:39:17.852Z,17.90
2023-08-11T09:41:49.928Z,16.13
2023-08-11T09:44:19.997Z,17.27
2023-08-11T09:46:48.677Z,17.67
2023-08-11T09:49:15.742Z,18.00
2023-08-11T09:51:43.997Z,15.25
2023-08-11T09:54:12.767Z,18.05
2023-08-11T09:56:44.778Z,19.80
2023-08-11T09:59:18.042Z,17.17
2023-08-11T10:01:47.282Z,16.45
2023-08-11T10:04:23.721Z,16.10
2023-08-11T10:06:57.956Z,16.52
2023-08-11T10:09:27.008Z,20.73
2023-08-11T10:11:58.874Z,15.07
2023-08-11T10:14:29.333Z,16.65
2023-08-11T10:17:00.326Z,14.63
2023-08-11T10:19:28.410Z,15.55
2023-08-11T10:21:58.260Z,15.90
2023-08-11T10:24:26.806Z,14.80
2023-08-11T10:26:54.784Z,16.23
2023-08-11T10:29:23.057Z,12.13
2023-08-11T10:32:00.436Z,13.88
2023-08-11T10:34:28.164Z,15.40
2023-08-11T10:36:58.659Z,13.45
2023-08-11T10:39:27.213Z,31.65
2023-08-11T10:41:58.497Z,55.13
2023-08-11T10:44:31.391Z,113.82
2023-08-11T10:47:02.618Z,172.88
2023-08-11T10:49:42.957Z,194.32
2023-08-11T10:52:12.423Z,182.98
2023-08-11T10:54:39.550Z,210.90
2023-08-11T10:57:06.772Z,232.63
2023-08-11T10:59:35.573Z,233.18
2023-08-11T11:02:03.019Z,223.93
2023-08-11T11:04:32.654Z,243.45
2023-08-11T11:07:01.633Z,243.02
2023-08-11T11:09:29.935Z,237.45
2023-08-11T11:11:57.641Z,243.77
2023-08-11T11:14:28.454Z,249.40
2023-08-11T11:17:00.367Z,235.70
2023-08-11T11:19:27.875Z,212.88
2023-08-11T11:21:56.056Z,211.73
2023-08-11T11:24:23.322Z,225.68
2023-08-11T11:26:50.379Z,216.55
2023-08-11T11:29:22.437Z,208.23
2023-08-11T11:31:50.313Z,203.10
2023-08-11T11:34:18.930Z,181.60
2023-08-11T11:36:46.250Z,169.88
2023-08-11T11:39:14.151Z,168.73
2023-08-11T11:41:41.257Z,152.98
2023-08-11T11:44:08.230Z,148.93
2023-08-11T11:46:35.616Z,137.90
2023-08-11T11:49:12.717Z,132.13
2023-08-11T11:55:14.327Z,135.50
2023-08-11T11:57:41.342Z,114.75
2023-08-11T12:00:17.211Z,120.20
2023-08-11T12:02:45.322Z,110.70
2023-08-11T12:05:14.018Z,89.95
2023-08-11T12:07:41.307Z,99.93
2023-08-11T12:10:08.796Z,94.20
2023-08-11T12:12:36.304Z,86.75
2023-08-11T12:15:07.977Z,82.53
2023-08-11T12:17:37.182Z,67.70
2023-08-11T12:20:08.471Z,73.28
2023-08-11T12:22:36.485Z,70.10
2023-08-11T12:25:04.419Z,65.40
2023-08-11T12:27:31.342Z,66.97
2023-08-11T12:29:58.221Z,55.75
2023-08-11T12:32:25.130Z,61.70
2023-08-11T12:34:52.601Z,60.45
2023-08-11T12:37:19.601Z,59.40
2023-08-11T12:39:46.480Z,55.50
2023-08-11T12:42:13.437Z,55.92
2023-08-11T12:44:40.709Z,55.03
2023-08-11T12:47:07.753Z,51.63
2023-08-11T12:49:34.742Z,45.10
2023-08-11T12:52:02.030Z,50.15
2023-08-11T12:54:29.011Z,50.80
2023-08-11T12:56:55.916Z,52.80
2023-08-11T12:59:22.952Z,46.97
2023-08-11T13:01:49.956Z,47.17
2023-08-11T13:04:17.149Z,49.33
2023-08-11T13:06:44.023Z,50.08
2023-08-11T13:09:12.878Z,50.30
2023-08-11T13:11:39.954Z,45.03
2023-08-11T13:14:07.158Z,45.03
2023-08-11T13:16:36.619Z,45.65
2023-08-11T13:19:04.317Z,50.10
2023-08-11T13:21:32.169Z,44.85
2023-08-11T13:24:00.735Z,40.08
2023-08-11T13:26:28.007Z,42.05
2023-08-11T13:28:58.241Z,41.97
2023-08-11T13:31:26.326Z,41.17
2023-08-11T13:33:53.212Z,43.05
2023-08-11T13:36:20.220Z,41.92
2023-08-11T13:38:47.775Z,42.10
2023-08-11T13:41:14.791Z,40.30
2023-08-11T13:43:41.707Z,35.67
2023-08-11T13:46:08.811Z,39.75
2023-08-11T13:48:35.804Z,32.28
2023-08-11T13:51:04.753Z,34.90
2023-08-11T13:53:31.691Z,38.40
2023-08-11T13:55:58.620Z,35.03
2023-08-11T13:58:25.612Z,36.97
2023-08-11T14:00:52.644Z,37.90
2023-08-11T14:03:19.655Z,36.78
2023-08-11T14:05:46.614Z,36.15
2023-08-11T14:08:13.522Z,33.63
2023-08-11T14:10:40.610Z,34.08
2023-08-11T14:13:10.269Z,31.95
2023-08-11T14:15:38.784Z,33.28
2023-08-11T14:18:07.469Z,37.33
2023-08-11T14:20:34.886Z,30.98
2023-08-11T14:23:01.991Z,29.52
2023-08-11T14:25:28.971Z,32.45
2023-08-11T14:27:56.087Z,29.02
2023-08-11T14:30:23.130Z,28.55
2023-08-11T14:32:50.210Z,29.33
2023-08-11T14:35:17.253Z,29.90
2023-08-11T14:37:44.170Z,29.70
2023-08-11T14:40:11.695Z,28.02
2023-08-11T14:42:38.568Z,27.23
2023-08-11T14:45:07.012Z,29.33
2023-08-11T14:47:33.976Z,25.13
2023-08-11T14:50:00.862Z,25.17
2023-08-11T14:52:28.107Z,28.67
2023-08-11T14:54:55.026Z,27.80
2023-08-11T14:57:23.042Z,27.15
2023-08-11T14:59:50.174Z,21.08
2023-08-11T15:02:17.315Z,18.08
2023-08-11T15:04:44.301Z,19.75
2023-08-11T15:07:11.259Z,25.10
2023-08-11T15:09:38.245Z,22.55
2023-08-11T15:12:06.976Z,20.83
2023-08-11T15:14:33.899Z,22.00
2023-08-11T15:17:01.379Z,19.35
2023-08-11T15:19:31.002Z,23.77
2023-08-11T15:21:57.981Z,20.38
2023-08-11T15:24:25.033Z,23.10
2023-08-11T15:26:51.944Z,20.50
2023-08-11T15:29:18.835Z,19.08
2023-08-11T15:31:45.709Z,16.20
2023-08-11T15:34:12.683Z,16.83
2023-08-11T15:36:39.697Z,14.10
2023-08-11T15:39:06.621Z,16.15
2023-08-11T15:41:34.048Z,17.20
2023-08-11T15:44:01.172Z,16.02
2023-08-11T15:46:28.571Z,17.45
2023-08-11T15:48:55.945Z,14.95
2023-08-11T15:51:22.865Z,14.85
2023-08-11T15:53:49.755Z,14.85
2023-08-11T15:56:16.634Z,16.52
2023-08-11T15:58:43.554Z,14.05
2023-08-11T16:01:10.531Z,15.38
2023-08-11T16:03:37.620Z,14.35
2023-08-11T16:06:06.758Z,15.52
2023-08-11T16:08:33.765Z,13.77
2023-08-11T16:11:00.692Z,14.15
2023-08-11T16:13:28.161Z,15.27
2023-08-11T16:15:55.087Z,14.27
2023-08-11T16:18:21.969Z,12.15
2023-08-11T16:20:48.996Z,13.82
2023-08-11T16:23:15.911Z,15.40
2023-08-11T16:25:42.960Z,13.30
2023-08-11T16:28:10.933Z,13.32
2023-08-11T16:30:37.984Z,12.73
2023-08-11T16:33:05.263Z,13.48
2023-08-11T16:35:32.226Z,16.23
2023-08-11T16:37:59.150Z,14.35
2023-08-11T16:40:26.116Z,12.55
2023-08-11T16:42:53.004Z,14.63
2023-08-11T16:45:19.995Z,11.93
2023-08-11T16:47:46.995Z,13.30
2023-08-11T16:50:13.999Z,13.35
2023-08-11T16:52:41.032Z,16.02
2023-08-11T16:55:08.915Z,11.00
2023-08-11T16:57:35.851Z,13.82
2023-08-11T17:00:04.476Z,12.00
2023-08-11T17:02:31.456Z,10.23
2023-08-11T17:04:58.441Z,11.75
2023-08-11T17:07:25.323Z,10.35
2023-08-11T17:09:52.193Z,10.48
2023-08-11T17:12:19.154Z,10.82
2023-08-11T17:14:46.057Z,10.32
2023-08-11T17:17:13.039Z,11.40
2023-08-11T17:19:40.077Z,12.57
2023-08-11T17:22:08.158Z,13.18
2023-08-11T17:24:35.150Z,11.38
2023-08-11T17:27:02.281Z,10.25
2023-08-11T17:29:29.149Z,9.80
2023-08-11T17:31:56.081Z,9.80
2023-08-11T17:34:23.082Z,10.80
2023-08-11T17:36:50.209Z,11.60
2023-08-11T17:39:17.161Z,9.23
2023-08-11T17:41:49.475Z,11.60
2023-08-11T17:44:17.148Z,12.25
2023-08-11T17:46:44.115Z,9.02
2023-08-11T17:49:11.182Z,9.77
2023-08-11T17:51:38.267Z,8.82
2023-08-11T17:54:09.634Z,8.63
2023-08-11T17:56:38.455Z,9.60
2023-08-11T17:59:06.384Z,10.07
2023-08-11T18:01:33.554Z,9.90
2023-08-11T18:04:03.445Z,8.75
2023-08-11T18:06:35.170Z,9.20
2023-08-11T18:09:04.773Z,7.68
2023-08-11T18:11:35.993Z,11.30
2023-08-11T18:14:03.051Z,7.82
2023-08-11T18:16:30.105Z,9.00
2023-08-11T18:18:57.296Z,9.13
2023-08-11T18:21:24.236Z,8.75
2023-08-11T18:23:51.198Z,9.70
2023-08-11T18:26:18.152Z,9.43
2023-08-11T18:28:45.373Z,8.80
2023-08-11T18:31:13.515Z,9.40
2023-08-11T18:33:40.583Z,10.20
2023-08-11T18:36:08.435Z,8.35
2023-08-11T18:38:35.486Z,9.73
2023-08-11T18:41:02.430Z,8.95
2023-08-11T18:43:30.204Z,10.75
2023-08-11T18:45:57.180Z,8.77
2023-08-11T18:48:24.212Z,9.35
2023-08-11T18:50:51.762Z,8.45
2023-08-11T18:53:18.685Z,9.57
2023-08-11T18:55:45.608Z,9.32
2023-08-11T18:58:12.536Z,8.93
2023-08-11T19:00:40.603Z,9.35
2023-08-11T19:03:07.792Z,7.45
2023-08-11T19:05:35.223Z,8.33
2023-08-11T19:08:02.581Z,9.15
2023-08-11T19:10:30.201Z,6.75
2023-08-11T19:12:57.284Z,8.00
2023-08-11T19:15:24.400Z,7.40
2023-08-11T19:17:51.436Z,7.25
2023-08-11T19:20:18.663Z,7.80
2023-08-11T19:22:45.648Z,6.50
2023-08-11T19:25:12.779Z,8.75
2023-08-11T19:27:40.006Z,7.55
2023-08-11T19:30:08.374Z,7.47
2023-08-11T19:32:35.788Z,6.00
2023-08-11T19:35:04.041Z,7.68
2023-08-11T19:37:30.945Z,7.35
2023-08-11T19:39:57.873Z,7.05
2023-08-11T19:42:25.031Z,8.18
2023-08-11T19:44:51.980Z,9.65
2023-08-11T19:47:19.086Z,6.85
2023-08-11T19:49:46.173Z,7.03
2023-08-11T19:52:13.445Z,7.43
2023-08-11T19:54:40.726Z,7.43
2023-08-11T19:57:07.725Z,7.07
2023-08-11T19:59:34.667Z,7.03
2023-08-11T20:02:01.557Z,6.68
2023-08-11T20:04:28.516Z,7.53
2023-08-11T20:06:55.785Z,7.47
2023-08-11T20:09:25.634Z,7.47
2023-08-11T20:11:52.643Z,6.70
2023-08-11T20:14:19.859Z,7.30
2023-08-11T20:16:49.489Z,7.43
2023-08-11T20:19:16.678Z,5.97
2023-08-11T20:21:43.687Z,7.22
2023-08-11T20:24:10.771Z,6.97
2023-08-11T20:26:37.859Z,6.85
2023-08-11T20:29:05.417Z,8.32
2023-08-11T20:31:34.064Z,7.80
2023-08-11T20:34:01.620Z,5.90
2023-08-11T20:36:28.862Z,7.38
2023-08-11T20:38:56.002Z,6.75
2023-08-11T20:41:23.190Z,6.80
2023-08-11T20:43:50.131Z,6.22
2023-08-11T20:46:17.189Z,6.35
2023-08-11T20:48:44.120Z,6.60
2023-08-11T20:51:12.970Z,7.03
2023-08-11T20:53:40.352Z,5.88
2023-08-11T20:56:09.223Z,6.55
2023-08-11T20:58:36.890Z,6.82
2023-08-11T21:01:04.023Z,5.70
2023-08-11T21:03:31.002Z,7.72
2023-08-11T21:05:57.919Z,7.32
2023-08-11T21:08:25.044Z,6.95
2023-08-11T21:10:52.082Z,5.75
2023-08-11T21:13:18.989Z,6.13
2023-08-11T21:15:45.869Z,6.35
2023-08-11T21:18:12.876Z,7.07
2023-08-11T21:20:40.039Z,6.78
2023-08-11T21:23:07.685Z,7.40
2023-08-11T21:25:35.367Z,4.70
2023-08-11T21:28:02.321Z,8.00
2023-08-11T21:30:29.271Z,5.30
2023-08-11T21:32:56.273Z,8.80
2023-08-11T21:35:23.247Z,5.90
2023-08-11T21:37:53.247Z,7.25
2023-08-11T21:40:20.165Z,6.35
2023-08-11T21:42:47.051Z,7.28
2023-08-11T21:45:14.001Z,5.20
2023-08-11T21:47:40.941Z,6.90
2023-08-11T21:50:08.896Z,5.40
2023-08-11T21:52:35.866Z,5.68
2023-08-11T21:55:04.199Z,7.63
2023-08-11T21:57:34.423Z,5.72
2023-08-11T22:00:01.480Z,6.07
2023-08-11T22:02:28.429Z,5.78
2023-08-11T22:04:58.341Z,5.65
2023-08-11T22:07:26.914Z,5.40
2023-08-11T22:09:54.093Z,6.05
2023-08-11T22:12:21.270Z,6.28
2023-08-11T22:14:48.293Z,6.47
2023-08-11T22:17:15.202Z,5.53
2023-08-11T22:19:46.854Z,6.80
2023-08-11T22:22:15.648Z,11.57
2023-08-11T22:24:42.649Z,8.02
2023-08-11T22:27:11.225Z,7.65
2023-08-11T22:29:38.773Z,6.22
2023-08-11T22:32:05.964Z,6.55
2023-08-11T22:34:32.913Z,10.07
2023-08-11T22:36:59.899Z,8.73
2023-08-11T22:39:27.204Z,8.30
2023-08-11T22:41:54.212Z,7.53
2023-08-11T22:44:21.183Z,7.30
2023-08-11T22:46:48.078Z,6.32
2023-08-11T22:49:14.993Z,9.45
2023-08-11T22:51:41.931Z,5.88
2023-08-11T22:54:08.875Z,9.73
2023-08-11T22:56:35.845Z,5.00
2023-08-11T22:59:02.869Z,7.45
2023-08-11T23:01:29.907Z,7.53
2023-08-11T23:03:56.893Z,5.07
2023-08-11T23:06:23.850Z,6.28
2023-08-11T23:08:50.705Z,6.28
2023-08-11T23:11:17.623Z,5.90
2023-08-11T23:13:44.553Z,5.30
2023-08-11T23:16:11.480Z,7.57
2023-08-11T23:18:38.527Z,6.70
2023-08-11T23:21:05.494Z,6.05
2023-08-11T23:23:32.390Z,8.30
2023-08-11T23:25:59.333Z,5.70
2023-08-11T23:28:27.916Z,5.03
2023-08-11T23:30:56.117Z,6.78
2023-08-11T23:33:23.115Z,7.90
2023-08-11T23:35:50.165Z,5.80
2023-08-11T23:38:17.054Z,5.45
2023-08-11T23:40:43.955Z,5.10
2023-08-11T23:43:10.885Z,5.82
2023-08-11T23:45:37.961Z,5.75
2023-08-11T23:48:06.728Z,5.65
2023-08-11T23:50:35.116Z,5.38
2023-08-11T23:53:02.028Z,4.60
2023-08-11T23:55:29.125Z,6.05
2023-08-11T23:57:56.231Z,5.35
